sensor_id;sensor_type;location;lat;lon;timestamp;temperature;humidity
12771;DHT22;6449;47.666;9.160;2023-07-13T00:03:40;18.50;99.90
12771;DHT22;6449;47.666;9.160;2023-07-13T00:08:34;18.50;99.90
12771;DHT22;6449;47.666;9.160;2023-07-13T00:13:29;18.50;99.90
12771;DHT22;6449;47.666;9.160;2023-07-13T00:18:23;18.60;99.90
12771;DHT22;6449;47.666;9.160;2023-07-13T00:23:21;18.60;99.90
12771;DHT22;6449;47.666;9.160;2023-07-13T00:28:18;18.50;99.90
12771;DHT22;6449;47.666;9.160;2023-07-13T00:33:12;18.50;99.90
12771;DHT22;6449;47.666;9.160;2023-07-13T00:38:09;18.50;99.90
12771;DHT22;6449;47.666;9.160;2023-07-13T00:43:08;18.40;99.90
12771;DHT22;6449;47.666;9.160;2023-07-13T00:48:05;18.40;99.90
12771;DHT22;6449;47.666;9.160;2023-07-13T00:52:59;18.30;99.90
12771;DHT22;6449;47.666;9.160;2023-07-13T00:57:52;18.30;99.90
12771;DHT22;6449;47.666;9.160;2023-07-13T01:02:48;18.30;99.90
12771;DHT22;6449;47.666;9.160;2023-07-13T01:07:43;18.30;99.90
12771;DHT22;6449;47.666;9.160;2023-07-13T01:12:37;18.30;99.90
12771;DHT22;6449;47.666;9.160;2023-07-13T01:17:32;18.30;99.90
12771;DHT22;6449;47.666;9.160;2023-07-13T01:22:28;18.30;99.90
12771;DHT22;6449;47.666;9.160;2023-07-13T01:27:25;18.40;99.90
12771;DHT22;6449;47.666;9.160;2023-07-13T01:32:22;18.50;99.90
12771;DHT22;6449;47.666;9.160;2023-07-13T01:37:17;18.50;99.90
12771;DHT22;6449;47.666;9.160;2023-07-13T01:42:12;18.50;99.90
12771;DHT22;6449;47.666;9.160;2023-07-13T01:47:06;18.50;99.90
12771;DHT22;6449;47.666;9.160;2023-07-13T01:51:59;18.50;99.90
12771;DHT22;6449;47.666;9.160;2023-07-13T01:56:53;18.50;99.90
12771;DHT22;6449;47.666;9.160;2023-07-13T02:01:47;18.50;99.90
12771;DHT22;6449;47.666;9.160;2023-07-13T02:06:41;18.40;99.90
12771;DHT22;6449;47.666;9.160;2023-07-13T02:11:34;18.40;99.90
12771;DHT22;6449;47.666;9.160;2023-07-13T02:16:28;18.40;99.90
12771;DHT22;6449;47.666;9.160;2023-07-13T02:21:24;18.30;99.90
12771;DHT22;6449;47.666;9.160;2023-07-13T02:26:17;18.20;99.90
12771;DHT22;6449;47.666;9.160;2023-07-13T02:31:13;18.20;99.90
12771;DHT22;6449;47.666;9.160;2023-07-13T02:36:08;18.20;99.90
12771;DHT22;6449;47.666;9.160;2023-07-13T02:41:04;18.30;99.90
12771;DHT22;6449;47.666;9.160;2023-07-13T02:45:59;18.30;99.90
12771;DHT22;6449;47.666;9.160;2023-07-13T02:50:59;18.30;99.90
12771;DHT22;6449;47.666;9.160;2023-07-13T02:55:52;18.30;99.90
12771;DHT22;6449;47.666;9.160;2023-07-13T03:00:48;18.30;99.90
12771;DHT22;6449;47.666;9.160;2023-07-13T03:05:44;18.30;99.90
12771;DHT22;6449;47.666;9.160;2023-07-13T03:10:42;18.30;99.90
12771;DHT22;6449;47.666;9.160;2023-07-13T03:15:35;18.30;99.90
12771;DHT22;6449;47.666;9.160;2023-07-13T03:20:32;18.30;99.90
12771;DHT22;6449;47.666;9.160;2023-07-13T03:25:26;18.40;99.90
12771;DHT22;6449;47.666;9.160;2023-07-13T03:30:19;18.30;99.90
12771;DHT22;6449;47.666;9.160;2023-07-13T03:35:13;18.40;99.90
12771;DHT22;6449;47.666;9.160;2023-07-13T03:40:09;18.30;99.90
12771;DHT22;6449;47.666;9.160;2023-07-13T03:45:04;18.40;99.90
12771;DHT22;6449;47.666;9.160;2023-07-13T03:49:58;18.40;99.90
12771;DHT22;6449;47.666;9.160;2023-07-13T03:54:51;18.40;99.90
12771;DHT22;6449;47.666;9.160;2023-07-13T03:59:46;18.30;99.90
12771;DHT22;6449;47.666;9.160;2023-07-13T04:04:39;18.20;99.90
12771;DHT22;6449;47.666;9.160;2023-07-13T04:09:33;18.20;99.90
12771;DHT22;6449;47.666;9.160;2023-07-13T04:14:26;18.20;99.90
12771;DHT22;6449;47.666;9.160;2023-07-13T04:19:21;18.10;99.90
12771;DHT22;6449;47.666;9.160;2023-07-13T04:24:14;18.20;99.90
12771;DHT22;6449;47.666;9.160;2023-07-13T04:29:08;18.20;99.90
12771;DHT22;6449;47.666;9.160;2023-07-13T04:34:01;18.20;99.90
12771;DHT22;6449;47.666;9.160;2023-07-13T04:38:56;18.20;99.90
12771;DHT22;6449;47.666;9.160;2023-07-13T04:43:49;18.20;99.90
12771;DHT22;6449;47.666;9.160;2023-07-13T04:48:46;18.20;99.90
12771;DHT22;6449;47.666;9.160;2023-07-13T04:53:43;18.30;99.90
12771;DHT22;6449;47.666;9.160;2023-07-13T04:58:37;18.30;99.90
12771;DHT22;6449;47.666;9.160;2023-07-13T05:03:32;18.30;99.90
12771;DHT22;6449;47.666;9.160;2023-07-13T05:08:26;18.30;99.90
12771;DHT22;6449;47.666;9.160;2023-07-13T05:13:20;18.40;99.90
12771;DHT22;6449;47.666;9.160;2023-07-13T05:18:18;18.40;99.90
12771;DHT22;6449;47.666;9.160;2023-07-13T05:23:11;18.50;99.90
12771;DHT22;6449;47.666;9.160;2023-07-13T05:28:04;18.50;99.90
12771;DHT22;6449;47.666;9.160;2023-07-13T05:32:58;18.50;99.90
12771;DHT22;6449;47.666;9.160;2023-07-13T05:37:53;18.60;99.90
12771;DHT22;6449;47.666;9.160;2023-07-13T05:42:46;18.70;99.90
12771;DHT22;6449;47.666;9.160;2023-07-13T05:47:39;18.70;99.90
12771;DHT22;6449;47.666;9.160;2023-07-13T05:52:35;18.70;99.90
12771;DHT22;6449;47.666;9.160;2023-07-13T05:57:31;18.80;99.90
12771;DHT22;6449;47.666;9.160;2023-07-13T06:02:24;18.80;99.90
12771;DHT22;6449;47.666;9.160;2023-07-13T06:07:18;18.80;99.90
12771;DHT22;6449;47.666;9.160;2023-07-13T06:12:12;18.70;99.90
12771;DHT22;6449;47.666;9.160;2023-07-13T06:17:07;18.70;99.90
12771;DHT22;6449;47.666;9.160;2023-07-13T06:22:01;18.60;99.90
12771;DHT22;6449;47.666;9.160;2023-07-13T06:26:55;18.50;99.90
12771;DHT22;6449;47.666;9.160;2023-07-13T06:31:48;18.40;99.90
12771;DHT22;6449;47.666;9.160;2023-07-13T06:36:44;18.40;99.90
12771;DHT22;6449;47.666;9.160;2023-07-13T06:41:37;18.40;99.90
12771;DHT22;6449;47.666;9.160;2023-07-13T06:46:31;18.30;99.90
12771;DHT22;6449;47.666;9.160;2023-07-13T06:51:24;18.30;99.90
12771;DHT22;6449;47.666;9.160;2023-07-13T06:56:19;18.30;99.90
12771;DHT22;6449;47.666;9.160;2023-07-13T07:01:13;18.30;99.90
12771;DHT22;6449;47.666;9.160;2023-07-13T07:06:13;18.10;99.90
12771;DHT22;6449;47.666;9.160;2023-07-13T07:11:12;18.00;99.90
12771;DHT22;6449;47.666;9.160;2023-07-13T07:16:08;18.00;99.90
12771;DHT22;6449;47.666;9.160;2023-07-13T07:21:02;18.10;99.90
12771;DHT22;6449;47.666;9.160;2023-07-13T07:25:55;18.00;99.90
12771;DHT22;6449;47.666;9.160;2023-07-13T07:30:51;18.00;99.90
12771;DHT22;6449;47.666;9.160;2023-07-13T07:36:07;18.00;99.90
12771;DHT22;6449;47.666;9.160;2023-07-13T07:41:04;18.00;99.90
12771;DHT22;6449;47.666;9.160;2023-07-13T07:46:01;18.00;99.90
12771;DHT22;6449;47.666;9.160;2023-07-13T07:50:55;18.00;99.90
12771;DHT22;6449;47.666;9.160;2023-07-13T07:55:50;18.10;99.90
12771;DHT22;6449;47.666;9.160;2023-07-13T08:00:46;18.60;99.90
12771;DHT22;6449;47.666;9.160;2023-07-13T08:05:43;18.60;99.90
12771;DHT22;6449;47.666;9.160;2023-07-13T08:10:57;18.40;99.90
12771;DHT22;6449;47.666;9.160;2023-07-13T08:16:16;18.30;99.90
12771;DHT22;6449;47.666;9.160;2023-07-13T08:21:09;18.30;99.90
12771;DHT22;6449;47.666;9.160;2023-07-13T08:26:04;18.30;99.90
12771;DHT22;6449;47.666;9.160;2023-07-13T08:31:01;18.20;99.90
12771;DHT22;6449;47.666;9.160;2023-07-13T08:35:55;18.30;99.90
12771;DHT22;6449;47.666;9.160;2023-07-13T08:40:51;18.60;99.90
12771;DHT22;6449;47.666;9.160;2023-07-13T08:45:50;18.90;99.90
12771;DHT22;6449;47.666;9.160;2023-07-13T08:50:56;19.00;99.90
12771;DHT22;6449;47.666;9.160;2023-07-13T08:55:58;19.40;99.90
12771;DHT22;6449;47.666;9.160;2023-07-13T09:00:59;20.00;99.90
12771;DHT22;6449;47.666;9.160;2023-07-13T09:06:00;20.50;99.90
12771;DHT22;6449;47.666;9.160;2023-07-13T09:11:02;20.60;99.90
12771;DHT22;6449;47.666;9.160;2023-07-13T09:16:09;20.70;99.90
12771;DHT22;6449;47.666;9.160;2023-07-13T09:21:09;20.90;99.90
12771;DHT22;6449;47.666;9.160;2023-07-13T09:26:11;21.00;99.90
12771;DHT22;6449;47.666;9.160;2023-07-13T09:31:13;20.80;99.90
12771;DHT22;6449;47.666;9.160;2023-07-13T09:36:19;20.60;99.90
12771;DHT22;6449;47.666;9.160;2023-07-13T09:41:21;20.30;99.90
12771;DHT22;6449;47.666;9.160;2023-07-13T09:46:23;20.60;99.90
12771;DHT22;6449;47.666;9.160;2023-07-13T09:51:17;20.60;99.90
12771;DHT22;6449;47.666;9.160;2023-07-13T09:56:20;20.40;99.90
12771;DHT22;6449;47.666;9.160;2023-07-13T10:01:14;20.30;99.90
12771;DHT22;6449;47.666;9.160;2023-07-13T10:06:15;19.90;99.90
12771;DHT22;6449;47.666;9.160;2023-07-13T10:11:12;19.70;99.90
12771;DHT22;6449;47.666;9.160;2023-07-13T10:16:12;19.50;99.90
12771;DHT22;6449;47.666;9.160;2023-07-13T10:21:14;19.30;99.90
12771;DHT22;6449;47.666;9.160;2023-07-13T10:26:16;19.20;99.90
12771;DHT22;6449;47.666;9.160;2023-07-13T10:31:15;19.20;99.90
12771;DHT22;6449;47.666;9.160;2023-07-13T10:36:20;19.30;99.90
12771;DHT22;6449;47.666;9.160;2023-07-13T10:41:23;19.60;99.90
12771;DHT22;6449;47.666;9.160;2023-07-13T10:46:23;19.80;99.90
12771;DHT22;6449;47.666;9.160;2023-07-13T10:51:22;19.80;99.90
12771;DHT22;6449;47.666;9.160;2023-07-13T10:56:23;20.10;99.90
12771;DHT22;6449;47.666;9.160;2023-07-13T11:01:23;20.60;99.90
12771;DHT22;6449;47.666;9.160;2023-07-13T11:06:31;20.70;99.90
12771;DHT22;6449;47.666;9.160;2023-07-13T11:11:38;20.80;99.90
12771;DHT22;6449;47.666;9.160;2023-07-13T11:16:43;20.80;99.90
12771;DHT22;6449;47.666;9.160;2023-07-13T11:22:02;20.50;99.90
12771;DHT22;6449;47.666;9.160;2023-07-13T11:27:21;20.40;99.90
12771;DHT22;6449;47.666;9.160;2023-07-13T11:32:25;20.40;99.90
12771;DHT22;6449;47.666;9.160;2023-07-13T11:37:24;20.50;99.90
12771;DHT22;6449;47.666;9.160;2023-07-13T11:42:21;20.70;99.90
12771;DHT22;6449;47.666;9.160;2023-07-13T11:47:18;20.80;99.90
12771;DHT22;6449;47.666;9.160;2023-07-13T11:52:15;20.90;99.90
12771;DHT22;6449;47.666;9.160;2023-07-13T11:57:21;21.10;99.90
12771;DHT22;6449;47.666;9.160;2023-07-13T12:02:25;21.00;99.90
12771;DHT22;6449;47.666;9.160;2023-07-13T12:07:28;20.90;99.90
12771;DHT22;6449;47.666;9.160;2023-07-13T12:12:29;20.70;99.90
12771;DHT22;6449;47.666;9.160;2023-07-13T12:17:24;21.10;99.90
12771;DHT22;6449;47.666;9.160;2023-07-13T12:22:19;21.40;99.90
12771;DHT22;6449;47.666;9.160;2023-07-13T12:27:20;21.40;99.90
12771;DHT22;6449;47.666;9.160;2023-07-13T12:32:18;21.40;99.90
12771;DHT22;6449;47.666;9.160;2023-07-13T12:37:12;21.50;99.90
12771;DHT22;6449;47.666;9.160;2023-07-13T12:42:19;21.80;99.90
12771;DHT22;6449;47.666;9.160;2023-07-13T12:47:21;21.90;99.90
12771;DHT22;6449;47.666;9.160;2023-07-13T12:52:16;21.70;99.90
12771;DHT22;6449;47.666;9.160;2023-07-13T12:57:16;21.70;99.90
12771;DHT22;6449;47.666;9.160;2023-07-13T13:02:28;21.90;99.90
12771;DHT22;6449;47.666;9.160;2023-07-13T13:07:24;21.90;99.90
12771;DHT22;6449;47.666;9.160;2023-07-13T13:12:18;21.90;99.90
12771;DHT22;6449;47.666;9.160;2023-07-13T13:17:18;21.80;99.90
12771;DHT22;6449;47.666;9.160;2023-07-13T13:22:17;21.80;99.90
12771;DHT22;6449;47.666;9.160;2023-07-13T13:27:15;21.90;99.90
12771;DHT22;6449;47.666;9.160;2023-07-13T13:32:13;22.10;99.90
12771;DHT22;6449;47.666;9.160;2023-07-13T13:37:18;22.30;99.90
12771;DHT22;6449;47.666;9.160;2023-07-13T13:42:13;22.30;99.90
12771;DHT22;6449;47.666;9.160;2023-07-13T13:47:19;22.30;99.90
12771;DHT22;6449;47.666;9.160;2023-07-13T13:52:21;22.20;99.90
12771;DHT22;6449;47.666;9.160;2023-07-13T13:57:14;22.30;99.90
12771;DHT22;6449;47.666;9.160;2023-07-13T14:02:22;22.20;99.90
12771;DHT22;6449;47.666;9.160;2023-07-13T14:07:18;22.20;99.90
12771;DHT22;6449;47.666;9.160;2023-07-13T14:12:12;22.20;99.90
12771;DHT22;6449;47.666;9.160;2023-07-13T14:17:17;22.30;99.90
12771;DHT22;6449;47.666;9.160;2023-07-13T14:22:14;22.30;99.90
12771;DHT22;6449;47.666;9.160;2023-07-13T14:27:09;22.20;99.90
12771;DHT22;6449;47.666;9.160;2023-07-13T14:32:07;22.00;99.90
12771;DHT22;6449;47.666;9.160;2023-07-13T14:37:03;22.00;99.90
12771;DHT22;6449;47.666;9.160;2023-07-13T14:41:57;22.00;99.90
12771;DHT22;6449;47.666;9.160;2023-07-13T14:46:53;21.80;99.90
12771;DHT22;6449;47.666;9.160;2023-07-13T14:51:46;21.70;99.90
12771;DHT22;6449;47.666;9.160;2023-07-13T14:56:39;21.70;99.90
12771;DHT22;6449;47.666;9.160;2023-07-13T15:01:33;21.70;99.90
12771;DHT22;6449;47.666;9.160;2023-07-13T15:06:55;21.70;99.90
12771;DHT22;6449;47.666;9.160;2023-07-13T15:11:51;21.80;99.90
12771;DHT22;6449;47.666;9.160;2023-07-13T15:16:46;21.80;99.90
12771;DHT22;6449;47.666;9.160;2023-07-13T15:21:45;21.80;99.90
12771;DHT22;6449;47.666;9.160;2023-07-13T15:26:40;21.90;99.90
12771;DHT22;6449;47.666;9.160;2023-07-13T15:31:37;21.80;99.90
12771;DHT22;6449;47.666;9.160;2023-07-13T15:36:31;21.80;99.90
12771;DHT22;6449;47.666;9.160;2023-07-13T15:41:27;21.90;99.90
12771;DHT22;6449;47.666;9.160;2023-07-13T15:46:23;21.90;99.90
12771;DHT22;6449;47.666;9.160;2023-07-13T15:51:20;22.00;99.90
12771;DHT22;6449;47.666;9.160;2023-07-13T15:56:19;21.90;99.90
12771;DHT22;6449;47.666;9.160;2023-07-13T16:01:17;21.90;99.90
12771;DHT22;6449;47.666;9.160;2023-07-13T16:06:14;22.00;99.90
12771;DHT22;6449;47.666;9.160;2023-07-13T16:11:15;22.10;99.90
12771;DHT22;6449;47.666;9.160;2023-07-13T16:16:11;22.10;99.90
12771;DHT22;6449;47.666;9.160;2023-07-13T16:21:11;22.20;99.90
12771;DHT22;6449;47.666;9.160;2023-07-13T16:26:23;22.20;99.90
12771;DHT22;6449;47.666;9.160;2023-07-13T16:31:20;22.30;99.90
12771;DHT22;6449;47.666;9.160;2023-07-13T16:36:16;22.40;99.90
12771;DHT22;6449;47.666;9.160;2023-07-13T16:41:09;22.40;99.90
12771;DHT22;6449;47.666;9.160;2023-07-13T16:46:03;22.40;99.90
12771;DHT22;6449;47.666;9.160;2023-07-13T16:50:57;22.30;99.90
12771;DHT22;6449;47.666;9.160;2023-07-13T16:55:52;22.30;99.90
12771;DHT22;6449;47.666;9.160;2023-07-13T17:00:48;22.20;99.90
12771;DHT22;6449;47.666;9.160;2023-07-13T17:05:46;22.20;99.90
12771;DHT22;6449;47.666;9.160;2023-07-13T17:10:41;22.20;99.90
12771;DHT22;6449;47.666;9.160;2023-07-13T17:15:38;22.10;99.90
12771;DHT22;6449;47.666;9.160;2023-07-13T17:20:34;22.00;99.90
12771;DHT22;6449;47.666;9.160;2023-07-13T17:25:34;21.90;99.90
12771;DHT22;6449;47.666;9.160;2023-07-13T17:30:28;21.90;99.90
12771;DHT22;6449;47.666;9.160;2023-07-13T17:35:26;21.80;99.90
12771;DHT22;6449;47.666;9.160;2023-07-13T17:40:21;21.80;99.90
12771;DHT22;6449;47.666;9.160;2023-07-13T17:45:15;21.70;99.90
12771;DHT22;6449;47.666;9.160;2023-07-13T17:50:15;21.70;99.90
12771;DHT22;6449;47.666;9.160;2023-07-13T17:55:16;21.60;99.90
12771;DHT22;6449;47.666;9.160;2023-07-13T18:00:13;21.50;99.90
12771;DHT22;6449;47.666;9.160;2023-07-13T18:05:19;21.40;99.90
12771;DHT22;6449;47.666;9.160;2023-07-13T18:10:17;21.30;99.90
12771;DHT22;6449;47.666;9.160;2023-07-13T18:15:13;21.10;99.90
12771;DHT22;6449;47.666;9.160;2023-07-13T18:20:11;21.00;99.90
12771;DHT22;6449;47.666;9.160;2023-07-13T18:25:12;21.00;99.90
12771;DHT22;6449;47.666;9.160;2023-07-13T18:30:12;20.90;99.90
12771;DHT22;6449;47.666;9.160;2023-07-13T18:35:13;20.80;99.90
12771;DHT22;6449;47.666;9.160;2023-07-13T18:40:13;20.60;99.90
12771;DHT22;6449;47.666;9.160;2023-07-13T18:45:11;20.40;99.90
12771;DHT22;6449;47.666;9.160;2023-07-13T18:50:15;20.40;99.90
12771;DHT22;6449;47.666;9.160;2023-07-13T18:55:15;20.30;99.90
12771;DHT22;6449;47.666;9.160;2023-07-13T19:00:13;20.20;99.90
12771;DHT22;6449;47.666;9.160;2023-07-13T19:05:15;20.10;99.90
12771;DHT22;6449;47.666;9.160;2023-07-13T19:10:14;19.90;99.90
12771;DHT22;6449;47.666;9.160;2023-07-13T19:15:17;19.80;99.90
12771;DHT22;6449;47.666;9.160;2023-07-13T19:20:14;19.80;99.90
12771;DHT22;6449;47.666;9.160;2023-07-13T19:25:15;19.60;99.90
12771;DHT22;6449;47.666;9.160;2023-07-13T19:30:10;19.50;99.90
12771;DHT22;6449;47.666;9.160;2023-07-13T19:35:07;19.50;99.90
12771;DHT22;6449;47.666;9.160;2023-07-13T19:40:00;19.40;99.90
12771;DHT22;6449;47.666;9.160;2023-07-13T19:44:56;19.30;99.90
12771;DHT22;6449;47.666;9.160;2023-07-13T19:49:52;19.20;99.90
12771;DHT22;6449;47.666;9.160;2023-07-13T19:54:49;19.10;99.90
12771;DHT22;6449;47.666;9.160;2023-07-13T19:59:44;19.10;99.90
12771;DHT22;6449;47.666;9.160;2023-07-13T20:04:41;19.10;99.90
12771;DHT22;6449;47.666;9.160;2023-07-13T20:09:36;19.20;99.90
12771;DHT22;6449;47.666;9.160;2023-07-13T20:14:34;19.30;99.90
12771;DHT22;6449;47.666;9.160;2023-07-13T20:19:30;19.40;99.90
12771;DHT22;6449;47.666;9.160;2023-07-13T20:24:26;19.40;99.90
12771;DHT22;6449;47.666;9.160;2023-07-13T20:29:21;19.20;99.90
12771;DHT22;6449;47.666;9.160;2023-07-13T20:34:18;19.30;99.90
12771;DHT22;6449;47.666;9.160;2023-07-13T22:36:41;17.30;99.90
12771;DHT22;6449;47.666;9.160;2023-07-13T22:41:35;17.20;99.90
12771;DHT22;6449;47.666;9.160;2023-07-13T22:46:31;17.30;99.90
12771;DHT22;6449;47.666;9.160;2023-07-13T22:51:26;17.20;99.90
12771;DHT22;6449;47.666;9.160;2023-07-13T23:02:53;17.00;99.90
12771;DHT22;6449;47.666;9.160;2023-07-13T23:46:57;16.70;99.90
12771;DHT22;6449;47.666;9.160;2023-07-13T23:51:52;16.60;99.90
